Time;durP1;ratioP1;P1;durP2;ratioP2;P2;SDS_P1;SDS_P2;PMS_P1;PMS_P2;Temp;Humidity;BMP_temperature;BMP_pressure;BME280_temperature;BME280_humidity;BME280_pressure;Samples;Min_cycle;Max_cycle;Signal;HPM_P1;HPM_P2
2023/02/15 00:01:15;;;;;;;24.40;18.30;;;;;;;1.61;93.59;98257.70;109084;1267;25332;-80
2023/02/15 00:03:48;;;;;;;27.60;20.60;;;;;;;1.62;93.69;98254.98;109111;1272;22564;-80
2023/02/15 00:06:19;;;;;;;24.50;19.00;;;;;;;1.61;93.68;98250.42;109097;1272;25436;-80
2023/02/15 00:08:50;;;;;;;25.40;19.00;;;;;;;1.62;93.68;98250.02;109139;1271;22546;-80
2023/02/15 00:11:39;;;;;;;22.60;18.10;;;;;;;1.61;93.59;98252.11;108840;1271;25494;-79
2023/02/15 00:14:12;;;;;;;30.60;21.10;;;;;;;1.61;93.62;98244.67;108757;1271;22512;-79
2023/02/15 00:16:44;;;;;;;30.70;22.40;;;;;;;1.59;93.61;98246.13;108940;1270;25264;-79
2023/02/15 00:19:17;;;;;;;27.80;21.40;;;;;;;1.58;93.97;98245.03;108818;1264;22534;-79
2023/02/15 00:21:49;;;;;;;34.70;25.50;;;;;;;1.57;93.91;98241.17;108813;1264;22536;-79
2023/02/15 00:24:21;;;;;;;33.90;25.00;;;;;;;1.56;94.02;98240.42;108796;1271;22529;-79
2023/02/15 00:26:52;;;;;;;33.90;25.00;;;;;;;1.55;93.93;98240.48;108812;1264;22535;-79
2023/02/15 00:29:23;;;;;;;30.40;21.50;;;;;;;1.54;94.08;98243.98;108828;1271;22630;-79
2023/02/15 00:31:54;;;;;;;23.70;15.80;;;;;;;1.51;94.09;98241.48;108927;1248;26682;-79
2023/02/15 00:34:27;;;;;;;20.00;15.30;;;;;;;1.49;93.80;98244.46;108809;1271;25264;-79
2023/02/15 00:36:59;;;;;;;19.20;15.70;;;;;;;1.51;93.80;98241.88;108909;1271;26033;-79
2023/02/15 00:39:30;;;;;;;26.70;19.60;;;;;;;1.52;93.78;98238.39;109200;1271;22576;-79
2023/02/15 00:42:01;;;;;;;31.30;22.90;;;;;;;1.52;93.86;98234.05;109157;1271;22541;-80
2023/02/15 00:44:31;;;;;;;23.60;18.50;;;;;;;1.46;93.98;98229.84;109147;1270;22536;-80
2023/02/15 00:47:03;;;;;;;25.40;20.30;;;;;;;1.41;93.87;98229.64;109208;1270;66626;-79
2023/02/15 00:49:34;;;;;;;28.20;22.00;;;;;;;1.36;93.95;98228.11;109150;1264;22531;-79
2023/02/15 00:52:05;;;;;;;26.60;20.20;;;;;;;1.30;94.25;98227.77;109173;1264;22520;-79
2023/02/15 00:54:38;;;;;;;25.20;19.40;;;;;;;1.28;94.38;98226.61;109158;1271;22547;-79
2023/02/15 00:57:09;;;;;;;25.10;19.20;;;;;;;1.28;94.29;98224.27;109129;1271;22541;-79
2023/02/15 00:59:40;;;;;;;25.40;19.10;;;;;;;1.29;94.29;98225.02;109233;1264;22567;-80
2023/02/15 01:02:13;;;;;;;26.80;18.40;;;;;;;1.28;94.45;98222.08;109209;1271;22544;-80
2023/02/15 01:04:44;;;;;;;24.20;18.80;;;;;;;1.30;94.31;98223.38;109183;1264;25284;-80
2023/02/15 01:07:15;;;;;;;32.50;26.40;;;;;;;1.31;94.34;98218.32;109225;1271;22527;-79
2023/02/15 01:09:46;;;;;;;32.80;25.20;;;;;;;1.29;94.40;98209.79;109030;1268;121432;-80
2023/02/15 01:12:17;;;;;;;30.80;24.40;;;;;;;1.27;94.39;98215.58;109176;1271;25335;-80
2023/02/15 01:14:48;;;;;;;34.00;25.00;;;;;;;1.24;94.50;98214.03;109193;1270;22535;-80
2023/02/15 01:17:19;;;;;;;37.80;27.80;;;;;;;1.21;94.63;98213.91;109153;1271;22604;-79
2023/02/15 01:19:51;;;;;;;35.10;24.10;;;;;;;1.20;94.69;98214.66;109190;1271;22545;-80
2023/02/15 01:22:22;;;;;;;28.50;21.60;;;;;;;1.24;94.81;98214.27;109046;1272;22531;-80
2023/02/15 01:24:53;;;;;;;26.40;19.50;;;;;;;1.24;94.71;98210.02;109134;1271;22537;-80
2023/02/15 01:27:24;;;;;;;28.80;21.90;;;;;;;1.25;94.80;98206.48;109125;1264;25493;-80
2023/02/15 01:29:56;;;;;;;26.30;19.10;;;;;;;1.25;94.75;98203.10;109149;1268;22573;-80
2023/02/15 01:32:27;;;;;;;25.00;19.80;;;;;;;1.27;94.73;98199.41;109215;1271;22559;-79
2023/02/15 01:34:59;;;;;;;27.40;20.40;;;;;;;1.26;94.63;98194.12;109216;1268;22941;-79
2023/02/15 01:37:30;;;;;;;23.70;18.20;;;;;;;1.25;94.65;98191.45;109175;1264;22549;-80
2023/02/15 01:40:02;;;;;;;27.10;18.60;;;;;;;1.24;94.67;98186.30;109130;1271;24221;-79
2023/02/15 01:42:33;;;;;;;21.60;16.20;;;;;;;1.24;94.67;98182.55;109188;1270;22657;-80
2023/02/15 01:45:15;;;;;;;21.30;16.00;;;;;;;1.24;94.79;98185.50;109122;1271;22651;-79
2023/02/15 01:47:50;;;;;;;21.50;15.70;;;;;;;1.25;94.63;98185.06;109202;1271;28220;-79
2023/02/15 01:50:26;;;;;;;24.60;16.60;;;;;;;1.25;94.64;98183.02;109204;1271;22542;-79
2023/02/15 01:53:03;;;;;;;25.40;17.70;;;;;;;1.27;94.59;98177.63;109173;1271;22665;-79
2023/02/15 01:55:38;;;;;;;25.40;18.90;;;;;;;1.29;94.65;98174.13;109272;1270;24280;-79
2023/02/15 01:58:10;;;;;;;24.20;18.40;;;;;;;1.29;94.65;98168.15;109223;1267;22531;-79
2023/02/15 02:00:42;;;;;;;26.30;18.90;;;;;;;1.29;94.70;98166.38;109208;1271;22544;-79
2023/02/15 02:03:14;;;;;;;23.00;17.90;;;;;;;1.32;94.76;98163.67;109216;1264;22539;-79
2023/02/15 02:05:45;;;;;;;20.20;15.40;;;;;;;1.31;94.52;98160.77;109200;1271;23290;-79
2023/02/15 02:08:16;;;;;;;20.30;15.70;;;;;;;1.29;94.49;98163.16;109228;1268;25293;-79
2023/02/15 02:10:46;;;;;;;23.50;17.80;;;;;;;1.29;94.41;98161.59;109224;1269;25244;-79
2023/02/15 02:13:18;;;;;;;19.80;14.20;;;;;;;1.28;94.45;98158.04;109102;1264;22535;-79
2023/02/15 02:15:55;;;;;;;21.90;14.90;;;;;;;1.25;94.50;98161.02;109179;1271;22531;-79
2023/02/15 02:18:40;;;;;;;19.90;14.20;;;;;;;1.22;94.43;98156.61;109170;1271;22646;-80
2023/02/15 02:21:56;;;;;;;18.80;14.50;;;;;;;1.19;94.35;98154.21;109214;1264;22524;-79
2023/02/15 02:24:48;;;;;;;18.70;14.40;;;;;;;1.16;94.43;98151.89;109149;1268;25437;-79
2023/02/15 02:27:30;;;;;;;20.10;15.90;;;;;;;1.15;94.48;98146.69;109188;1264;25314;-79
2023/02/15 02:30:29;;;;;;;19.70;15.20;;;;;;;1.11;94.53;98142.89;109207;1271;22531;-79
2023/02/15 02:33:34;;;;;;;17.40;14.00;;;;;;;1.11;94.39;98141.84;109120;1272;24242;-80
2023/02/15 02:36:16;;;;;;;16.50;12.50;;;;;;;1.11;94.43;98142.04;109061;1271;23238;-79
2023/02/15 02:39:01;;;;;;;19.40;12.40;;;;;;;1.11;94.62;98138.19;109072;1270;22548;-79
2023/02/15 02:41:40;;;;;;;17.50;12.30;;;;;;;1.08;94.60;98136.89;109061;1272;22735;-79
2023/02/15 02:44:18;;;;;;;16.40;13.30;;;;;;;1.04;94.60;98136.53;109137;1272;23390;-80
2023/02/15 02:46:54;;;;;;;18.80;13.50;;;;;;;1.00;94.54;98137.13;109065;1265;22558;-80
2023/02/15 02:49:35;;;;;;;18.70;14.50;;;;;;;1.02;94.79;98133.09;109231;1271;22534;-79
2023/02/15 02:52:08;;;;;;;21.30;13.90;;;;;;;1.04;94.80;98130.19;109364;1263;22533;-80
2023/02/15 02:54:39;;;;;;;18.90;15.00;;;;;;;1.01;94.89;98131.05;109294;1266;25402;-80
2023/02/15 02:57:11;;;;;;;19.10;14.60;;;;;;;0.95;95.01;98132.42;109274;1271;24764;-80
2023/02/15 02:59:46;;;;;;;21.20;15.90;;;;;;;0.94;94.95;98129.99;109325;1271;22529;-80
2023/02/15 03:02:25;;;;;;;17.10;13.80;;;;;;;0.97;94.96;98129.23;109307;1271;23172;-79
2023/02/15 03:05:03;;;;;;;17.30;13.40;;;;;;;0.99;95.04;98129.92;109217;1271;22525;-80
2023/02/15 03:07:36;;;;;;;20.00;14.80;;;;;;;0.99;95.01;98135.37;109355;1264;22592;-80
2023/02/15 03:10:09;;;;;;;18.00;13.20;;;;;;;0.97;95.06;98135.20;109276;1271;22638;-80
2023/02/15 03:12:41;;;;;;;16.30;12.60;;;;;;;0.91;95.05;98136.30;109302;1271;22524;-80
2023/02/15 03:15:16;;;;;;;16.80;12.70;;;;;;;0.82;94.86;98132.75;109313;1267;24263;-80
2023/02/15 03:17:53;;;;;;;20.00;12.60;;;;;;;0.76;95.28;98135.17;109300;1247;25435;-80
2023/02/15 03:20:30;;;;;;;17.00;13.70;;;;;;;0.74;95.38;98140.88;108994;1264;22768;-79
2023/02/15 03:23:05;;;;;;;16.00;12.90;;;;;;;0.73;95.62;98141.99;108994;1264;22539;-79
2023/02/15 03:25:40;;;;;;;20.20;13.60;;;;;;;0.75;95.73;98144.59;108944;1265;22548;-79
2023/02/15 03:28:16;;;;;;;19.00;14.30;;;;;;;0.71;95.57;98140.98;108891;1271;22532;-80
2023/02/15 03:30:52;;;;;;;17.80;12.40;;;;;;;0.66;95.63;98144.39;109012;1271;22524;-80
2023/02/15 03:33:24;;;;;;;16.90;13.40;;;;;;;0.64;95.83;98140.60;109265;1271;22555;-80
2023/02/15 03:36:05;;;;;;;19.70;14.40;;;;;;;0.62;95.88;98138.15;109315;1271;23297;-80
2023/02/15 03:38:41;;;;;;;18.10;13.20;;;;;;;0.64;95.78;98135.19;108875;1271;24215;-80
2023/02/15 03:41:13;;;;;;;16.50;12.50;;;;;;;0.67;95.86;98132.64;109257;1264;22529;-79
2023/02/15 03:43:51;;;;;;;17.90;14.30;;;;;;;0.67;95.99;98134.05;109254;1271;22535;-80
2023/02/15 03:46:27;;;;;;;19.80;14.00;;;;;;;0.67;96.01;98138.06;109285;1270;22552;-80
2023/02/15 03:49:03;;;;;;;21.90;16.00;;;;;;;0.62;95.98;98131.74;109271;1271;22578;-80
2023/02/15 03:51:37;;;;;;;19.00;14.20;;;;;;;0.56;95.91;98125.84;109279;1271;22639;-80
2023/02/15 03:54:13;;;;;;;18.70;14.30;;;;;;;0.53;95.90;98124.61;109232;1271;22526;-80
2023/02/15 04:01:56;;;;;;;18.90;14.00;;;;;;;0.52;96.24;98121.42;109288;1263;22516;-80
2023/02/15 04:02:45;;;;;;;20.50;13.90;;;;;;;0.49;96.14;98120.73;108919;1276;22541;-80
2023/02/15 04:05:17;;;;;;;19.60;13.80;;;;;;;0.49;96.25;98114.20;108927;1276;25365;-80
2023/02/15 04:07:49;;;;;;;21.50;13.20;;;;;;;0.46;96.36;98109.69;109033;1272;22537;-80
2023/02/15 04:13:09;;;;;;;19.30;14.10;;;;;;;0.36;96.87;98115.48;109291;1263;22539;-80
2023/02/15 04:26:55;;;;;;;16.10;12.50;;;;;;;0.41;96.99;98106.05;109259;1271;25228;-80
2023/02/15 04:29:27;;;;;;;17.10;12.20;;;;;;;0.41;97.09;98105.70;109232;1266;25300;-80
2023/02/15 04:32:01;;;;;;;17.00;12.50;;;;;;;0.39;97.00;98110.33;109271;1271;22531;-80
2023/02/15 04:34:32;;;;;;;18.90;13.80;;;;;;;0.36;97.06;98115.83;109265;1271;22606;-80
2023/02/15 04:37:03;;;;;;;19.30;13.80;;;;;;;0.37;96.97;98113.19;109231;1271;22537;-81
2023/02/15 04:39:34;;;;;;;22.10;15.50;;;;;;;0.34;97.01;98109.11;109211;1271;22534;-80
2023/02/15 04:42:05;;;;;;;21.00;15.00;;;;;;;0.32;96.81;98109.55;109315;1250;24303;-80
2023/02/15 04:44:36;;;;;;;21.30;14.70;;;;;;;0.29;97.02;98109.58;109228;1271;26331;-80
2023/02/15 04:47:07;;;;;;;22.40;16.20;;;;;;;0.23;96.95;98109.98;109288;1271;22654;-80
2023/02/15 04:49:38;;;;;;;24.90;17.90;;;;;;;0.19;97.04;98108.25;109299;1265;22531;-81
2023/02/15 04:52:09;;;;;;;24.90;17.30;;;;;;;0.17;96.96;98112.11;109273;1271;22544;-80
2023/02/15 04:54:41;;;;;;;28.40;19.10;;;;;;;0.15;97.27;98110.44;109283;1271;22546;-80
2023/02/15 04:57:12;;;;;;;28.90;18.60;;;;;;;0.11;97.27;98112.25;109340;1267;22539;-80
2023/02/15 04:59:43;;;;;;;23.40;14.40;;;;;;;0.12;97.33;98112.38;109275;1271;22537;-80
2023/02/15 05:02:14;;;;;;;25.40;17.00;;;;;;;0.10;97.50;98112.42;109241;1271;22997;-80
2023/02/15 05:04:45;;;;;;;27.50;18.60;;;;;;;0.06;97.46;98110.44;109333;1267;22544;-80
2023/02/15 05:07:16;;;;;;;23.30;16.60;;;;;;;0.05;97.39;98109.02;109233;1271;22521;-81
2023/02/15 05:09:47;;;;;;;23.80;16.30;;;;;;;0.04;97.54;98102.11;109325;1271;22536;-80
2023/02/15 05:12:18;;;;;;;26.20;17.60;;;;;;;-0.01;97.49;98107.00;109300;1271;23261;-80
2023/02/15 05:14:49;;;;;;;25.60;17.80;;;;;;;-0.02;97.45;98111.42;109308;1263;22655;-80
2023/02/15 05:17:20;;;;;;;24.20;16.40;;;;;;;-0.04;97.51;98109.91;109261;1271;22541;-80
2023/02/15 05:19:57;;;;;;;22.70;15.60;;;;;;;-0.08;97.48;98115.26;109328;1263;22538;-81
2023/02/15 05:22:31;;;;;;;21.90;15.60;;;;;;;-0.12;97.81;98115.63;109286;1263;22533;-81
2023/02/15 05:30:40;;;;;;;21.80;13.20;;;;;;;-0.29;98.27;98124.45;109206;1271;22571;-80
2023/02/15 05:33:11;;;;;;;22.50;15.40;;;;;;;-0.33;98.36;98125.81;109296;1263;22515;-80
2023/02/15 05:35:43;;;;;;;23.90;16.70;;;;;;;-0.32;98.29;98124.09;109339;1271;25346;-80
2023/02/15 05:38:14;;;;;;;23.90;16.20;;;;;;;-0.30;98.50;98126.27;109221;1271;22557;-80
2023/02/15 05:40:45;;;;;;;21.80;14.80;;;;;;;-0.29;98.60;98128.28;109239;1263;22566;-81
2023/02/15 05:43:16;;;;;;;24.20;17.40;;;;;;;-0.30;98.78;98130.23;109260;1256;22644;-81
2023/02/15 05:45:48;;;;;;;22.60;16.00;;;;;;;-0.32;98.90;98133.16;109333;1271;22578;-81
2023/02/15 05:48:21;;;;;;;24.40;16.00;;;;;;;-0.34;98.91;98128.80;109213;1271;25252;-81
2023/02/15 05:51:02;;;;;;;24.30;15.50;;;;;;;-0.35;98.73;98128.81;109311;1271;22647;-81
2023/02/15 05:53:35;;;;;;;23.80;15.10;;;;;;;-0.39;98.95;98125.46;109289;1259;22540;-81
2023/02/15 05:56:08;;;;;;;22.20;13.80;;;;;;;-0.44;98.98;98121.30;109319;1271;24487;-81
2023/02/15 05:58:41;;;;;;;24.80;15.70;;;;;;;-0.48;99.13;98126.05;109341;1271;22532;-81
2023/02/15 06:01:14;;;;;;;26.40;15.80;;;;;;;-0.50;99.15;98129.52;109357;1271;25236;-81
2023/02/15 06:03:46;;;;;;;24.00;15.20;;;;;;;-0.49;99.65;98131.39;109254;1271;22599;-81
2023/02/15 06:06:17;;;;;;;20.30;14.20;;;;;;;-0.49;99.90;98131.98;109277;1263;24371;-81
2023/02/15 06:08:48;;;;;;;23.70;14.80;;;;;;;-0.48;99.57;98133.54;109174;1271;22572;-81
2023/02/15 06:11:19;;;;;;;24.50;15.80;;;;;;;-0.47;99.70;98130.70;109149;1271;24581;-80
2023/02/15 06:13:51;;;;;;;21.10;15.00;;;;;;;-0.51;99.84;98127.80;109105;1271;22556;-80
2023/02/15 06:16:22;;;;;;;22.60;14.80;;;;;;;-0.51;99.75;98131.96;109163;1271;23826;-80
2023/02/15 06:18:53;;;;;;;23.00;15.40;;;;;;;-0.47;99.97;98126.98;109142;1271;23260;-80
2023/02/15 06:21:25;;;;;;;22.40;14.60;;;;;;;-0.46;99.93;98128.28;109192;1271;22532;-80
2023/02/15 06:23:56;;;;;;;22.20;15.90;;;;;;;-0.43;99.91;98131.02;109174;1270;22564;-80
2023/02/15 06:26:27;;;;;;;24.00;15.00;;;;;;;-0.39;100.00;98128.00;109174;1271;22552;-80
2023/02/15 06:28:58;;;;;;;24.40;16.00;;;;;;;-0.33;100.00;98128.58;109162;1265;22601;-80
2023/02/15 06:31:30;;;;;;;24.00;15.50;;;;;;;-0.31;99.99;98132.30;109135;1265;22538;-80
2023/02/15 06:34:01;;;;;;;22.70;16.80;;;;;;;-0.27;99.93;98130.50;109196;1271;24282;-80
2023/02/15 06:36:33;;;;;;;25.20;17.10;;;;;;;-0.21;100.00;98128.08;109180;1271;24196;-80
2023/02/15 06:39:04;;;;;;;23.80;17.30;;;;;;;-0.10;100.00;98126.80;109115;1271;22559;-80
2023/02/15 06:41:36;;;;;;;25.50;18.00;;;;;;;0.04;99.99;98122.64;109183;1264;22955;-80
2023/02/15 06:44:08;;;;;;;21.00;15.50;;;;;;;0.20;99.89;98124.60;109202;1271;22538;-80
2023/02/15 06:46:39;;;;;;;24.50;15.50;;;;;;;0.34;99.63;98123.19;109107;1271;23103;-80
2023/02/15 06:49:10;;;;;;;22.00;14.30;;;;;;;0.65;99.67;98117.66;109159;1271;25419;-80
2023/02/15 06:51:41;;;;;;;19.30;14.00;;;;;;;1.04;99.41;98113.27;109160;1271;22697;-80
2023/02/15 06:54:12;;;;;;;21.80;15.80;;;;;;;1.35;98.21;98111.73;109120;1265;22571;-80
2023/02/15 06:56:44;;;;;;;20.60;16.30;;;;;;;1.25;97.42;98112.57;109162;1271;22551;-80
2023/02/15 06:59:15;;;;;;;20.50;15.70;;;;;;;1.41;97.27;98113.45;109160;1270;22531;-80
2023/02/15 07:01:46;;;;;;;19.30;16.10;;;;;;;2.12;97.57;98112.36;109094;1271;22517;-80
2023/02/15 07:04:17;;;;;;;17.30;14.60;;;;;;;2.96;96.75;98106.03;109147;1264;22556;-81
2023/02/15 07:06:48;;;;;;;15.50;13.00;;;;;;;3.27;94.49;98103.29;109157;1264;22588;-80
2023/02/15 07:09:21;;;;;;;14.20;12.10;;;;;;;3.86;93.10;98110.20;109118;1271;22549;-80
2023/02/15 07:14:41;;;;;;;12.70;11.00;;;;;;;4.89;90.02;98109.11;109172;1271;23015;-80
2023/02/15 07:17:12;;;;;;;12.60;11.30;;;;;;;5.36;88.99;98105.47;109153;1265;22568;-81
2023/02/15 07:19:43;;;;;;;14.00;12.50;;;;;;;5.61;84.82;98108.45;109141;1271;22621;-81
2023/02/15 07:22:14;;;;;;;14.50;12.90;;;;;;;5.81;85.95;98102.73;109133;1271;22541;-81
2023/02/15 07:24:45;;;;;;;14.20;12.70;;;;;;;6.83;86.52;98095.95;109174;1268;22534;-81
2023/02/15 07:27:16;;;;;;;15.60;14.00;;;;;;;7.47;83.14;98090.33;109207;1271;23104;-81
2023/02/15 07:29:48;;;;;;;16.50;14.80;;;;;;;7.52;80.95;98089.27;109301;1271;22614;-81
2023/02/15 07:32:19;;;;;;;15.50;13.90;;;;;;;7.65;80.02;98084.75;109200;1271;22592;-81
2023/02/15 07:34:50;;;;;;;15.80;14.20;;;;;;;8.10;80.24;98081.59;109266;1264;22647;-81
2023/02/15 07:37:21;;;;;;;16.10;14.50;;;;;;;8.24;76.85;98078.98;109201;1265;24095;-81
2023/02/15 07:39:52;;;;;;;16.30;14.60;;;;;;;7.79;74.06;98082.33;109303;1265;22621;-81
2023/02/15 07:42:23;;;;;;;15.50;13.90;;;;;;;7.44;74.70;98080.42;109301;1271;22552;-81
2023/02/15 07:44:54;;;;;;;14.30;12.80;;;;;;;7.52;73.39;98079.27;109184;1271;23179;-81
2023/02/15 07:47:27;;;;;;;14.20;12.50;;;;;;;7.41;72.22;98075.91;109271;1271;43213;-81
2023/02/15 07:49:58;;;;;;;15.30;13.10;;;;;;;7.29;70.55;98074.14;109326;1271;22543;-81
2023/02/15 07:52:29;;;;;;;15.50;13.70;;;;;;;7.03;70.39;98077.03;109379;1271;23380;-81
2023/02/15 07:55:00;;;;;;;15.30;13.70;;;;;;;7.34;72.03;98074.65;109280;1271;22567;-81
2023/02/15 07:57:31;;;;;;;16.20;14.50;;;;;;;8.07;71.31;98074.28;109292;1271;22515;-81
2023/02/15 08:00:02;;;;;;;15.80;14.00;;;;;;;8.33;69.12;98071.20;109351;1271;23171;-81
2023/02/15 08:02:33;;;;;;;17.20;15.50;;;;;;;8.14;67.87;98074.88;109314;1271;22512;-81
2023/02/15 08:05:05;;;;;;;17.20;14.40;;;;;;;8.25;67.99;98069.67;109317;1271;22521;-81
2023/02/15 08:07:36;;;;;;;17.80;15.90;;;;;;;8.56;67.37;98066.88;109344;1271;22553;-81
2023/02/15 08:10:09;;;;;;;17.30;15.50;;;;;;;8.76;66.01;98064.98;109364;1271;26498;-81
2023/02/15 08:12:40;;;;;;;16.70;14.90;;;;;;;8.99;66.16;98062.19;109334;1271;22542;-80
2023/02/15 08:15:11;;;;;;;16.50;14.70;;;;;;;9.43;65.21;98059.13;109372;1271;22612;-81
2023/02/15 08:17:42;;;;;;;16.80;14.90;;;;;;;9.57;64.07;98059.58;109369;1268;28114;-80
2023/02/15 08:20:13;;;;;;;17.10;15.30;;;;;;;9.78;63.59;98054.27;109364;1271;24845;-80
2023/02/15 08:22:44;;;;;;;19.10;15.00;;;;;;;9.93;63.32;98052.06;109268;1271;22517;-80
2023/02/15 08:25:16;;;;;;;17.10;15.00;;;;;;;10.29;63.14;98049.88;109301;1271;23875;-80
2023/02/15 08:27:47;;;;;;;17.60;14.10;;;;;;;10.61;63.25;98044.50;109352;1271;24234;-80
2023/02/15 08:30:18;;;;;;;16.40;14.40;;;;;;;10.85;62.88;98044.14;109336;1264;22518;-80
2023/02/15 08:32:49;;;;;;;18.10;15.00;;;;;;;11.18;62.00;98043.20;109315;1271;22666;-80
2023/02/15 08:35:20;;;;;;;17.30;14.20;;;;;;;11.33;60.98;98041.31;109273;1271;22567;-80
2023/02/15 08:37:52;;;;;;;16.80;13.10;;;;;;;10.98;59.11;98038.86;109300;1271;22567;-80
2023/02/15 08:40:23;;;;;;;16.50;13.10;;;;;;;10.13;58.66;98044.19;109302;1271;22523;-80
2023/02/15 08:42:54;;;;;;;17.00;13.50;;;;;;;9.89;59.96;98036.89;109285;1271;22536;-80
2023/02/15 08:45:25;;;;;;;15.20;12.60;;;;;;;9.98;59.91;98038.38;109300;1272;23300;-80
2023/02/15 08:47:56;;;;;;;15.20;12.20;;;;;;;9.88;59.74;98041.00;109254;1271;22537;-80
2023/02/15 08:50:27;;;;;;;15.10;11.40;;;;;;;9.82;59.76;98037.50;109299;1271;25293;-80
2023/02/15 08:52:58;;;;;;;15.30;11.60;;;;;;;9.57;59.81;98036.27;109319;1268;22538;-80
2023/02/15 08:55:29;;;;;;;14.00;10.90;;;;;;;9.62;60.17;98031.15;109311;1272;22524;-80
2023/02/15 08:58:01;;;;;;;14.10;11.20;;;;;;;9.10;59.33;98032.27;109321;1268;22544;-80
2023/02/15 09:00:32;;;;;;;14.30;9.90;;;;;;;8.60;60.04;98030.66;109361;1271;22527;-80
2023/02/15 09:03:03;;;;;;;14.00;10.60;;;;;;;8.14;59.58;98029.94;109280;1270;23049;-80
2023/02/15 09:05:34;;;;;;;14.20;10.50;;;;;;;7.71;60.25;98033.45;109312;1261;26492;-80
2023/02/15 09:08:05;;;;;;;15.10;11.00;;;;;;;7.47;61.17;98030.38;109318;1271;22516;-80
2023/02/15 09:10:37;;;;;;;14.60;9.80;;;;;;;7.25;61.19;98024.77;109322;1271;23295;-80
2023/02/15 09:13:08;;;;;;;14.50;11.10;;;;;;;7.00;61.04;98024.97;109286;1265;22534;-80
2023/02/15 09:15:39;;;;;;;13.30;9.90;;;;;;;6.74;61.98;98021.92;109160;1271;22536;-80
2023/02/15 09:18:12;;;;;;;12.60;8.80;;;;;;;6.77;63.04;98016.59;109181;1271;23691;-80
2023/02/15 09:20:43;;;;;;;12.30;8.90;;;;;;;6.79;62.86;98016.04;110108;1272;22529;-80
2023/02/15 09:23:15;;;;;;;12.50;8.90;;;;;;;6.71;62.83;98016.58;109294;1270;22659;-80
2023/02/15 09:25:46;;;;;;;14.30;9.50;;;;;;;6.58;62.81;98016.98;109345;1271;22561;-80
2023/02/15 09:28:17;;;;;;;12.00;8.70;;;;;;;6.39;63.09;98016.55;109269;1271;23273;-80
2023/02/15 09:30:48;;;;;;;13.20;9.20;;;;;;;6.25;63.36;98014.66;109316;1268;22631;-80
2023/02/15 09:33:19;;;;;;;13.40;10.20;;;;;;;6.18;63.76;98012.77;109331;1265;24106;-79
2023/02/15 09:35:50;;;;;;;13.20;9.70;;;;;;;6.05;63.91;98012.05;109388;1271;22522;-80
2023/02/15 09:38:21;;;;;;;15.10;9.40;;;;;;;5.98;63.76;98007.73;109338;1269;26265;-80
2023/02/15 09:41:01;;;;;;;14.70;10.30;;;;;;;5.93;63.84;98004.02;109316;1271;22567;-79
2023/02/15 09:43:42;;;;;;;14.70;10.10;;;;;;;5.98;64.15;98002.48;109353;1267;22544;-79
2023/02/15 09:46:30;;;;;;;13.90;9.50;;;;;;;6.06;64.16;98006.14;109303;1268;22520;-79
2023/02/15 09:49:11;;;;;;;13.40;9.90;;;;;;;6.04;64.39;98006.40;109301;1272;23237;-79
2023/02/15 09:52:02;;;;;;;13.20;9.40;;;;;;;6.23;64.90;97999.73;110656;1272;22192;-80
2023/02/15 09:54:46;;;;;;;12.60;9.40;;;;;;;6.34;64.38;98003.87;110653;1268;22411;-80
2023/02/15 09:57:28;;;;;;;13.20;8.80;;;;;;;6.48;64.49;98003.83;110720;1271;28686;-79
2023/02/15 10:00:09;;;;;;;13.10;9.20;;;;;;;6.59;64.36;98000.23;110758;1268;22987;-80
2023/02/15 10:02:54;;;;;;;11.60;8.40;;;;;;;6.63;63.77;97997.13;110496;1271;23033;-79
2023/02/15 10:05:39;;;;;;;13.20;8.60;;;;;;;6.69;63.76;97992.47;109326;1271;22542;-79
2023/02/15 10:08:46;;;;;;;12.80;9.10;;;;;;;6.67;62.33;97995.00;109312;1265;23793;-79
2023/02/15 10:11:42;;;;;;;11.50;8.30;;;;;;;6.60;63.15;97989.40;109185;1272;23281;-79
2023/02/15 10:14:56;;;;;;;13.20;9.40;;;;;;;6.79;63.73;97989.24;109237;1271;22525;-79
2023/02/15 10:17:41;;;;;;;14.00;9.30;;;;;;;6.96;63.29;97986.57;109224;1272;22531;-79
2023/02/15 10:20:28;;;;;;;13.60;10.40;;;;;;;7.06;63.17;97980.25;109267;1266;23814;-79
2023/02/15 10:23:16;;;;;;;12.80;8.90;;;;;;;7.25;64.01;97980.13;109270;1272;23031;-79
2023/02/15 10:25:52;;;;;;;12.40;8.70;;;;;;;7.58;64.08;97977.20;109224;1272;22553;-79
2023/02/15 10:28:28;;;;;;;12.10;9.10;;;;;;;7.77;63.48;97979.54;109256;1270;27336;-79
2023/02/15 10:31:12;;;;;;;9.90;7.40;;;;;;;7.88;63.17;97974.52;109252;1272;22562;-79
2023/02/15 10:33:45;;;;;;;12.70;9.10;;;;;;;7.84;60.89;97974.27;109250;1268;25423;-79
2023/02/15 10:36:31;;;;;;;14.00;9.50;;;;;;;7.60;61.28;97973.92;109232;1272;22520;-79
2023/02/15 10:39:08;;;;;;;15.70;11.20;;;;;;;7.68;62.09;97969.45;109262;1271;22536;-79
2023/02/15 10:41:48;;;;;;;16.80;11.40;;;;;;;7.68;61.93;97966.65;109361;1271;22558;-79
2023/02/15 10:44:40;;;;;;;16.70;12.30;;;;;;;7.59;61.72;97965.50;109310;1264;22534;-79
2023/02/15 10:47:39;;;;;;;17.00;12.80;;;;;;;7.46;62.06;97967.83;109308;1271;22726;-79
2023/02/15 10:50:41;;;;;;;16.60;12.00;;;;;;;7.53;62.84;97965.94;109315;1271;22483;-79
2023/02/15 10:53:32;;;;;;;17.50;12.90;;;;;;;7.63;63.14;97963.56;109300;1271;22531;-79
2023/02/15 10:56:13;;;;;;;15.40;11.40;;;;;;;7.85;63.43;97960.14;109307;1265;22548;-79
2023/02/15 10:58:59;;;;;;;15.60;12.00;;;;;;;8.00;63.46;97956.58;109239;1272;22530;-79
2023/02/15 11:01:39;;;;;;;16.30;13.10;;;;;;;8.26;63.57;97947.07;109245;1271;22522;-79
2023/02/15 11:04:35;;;;;;;17.00;11.70;;;;;;;8.43;63.55;97940.27;109268;1266;22511;-79
2023/02/15 11:07:14;;;;;;;16.90;11.90;;;;;;;8.63;63.81;97936.05;109275;1271;25486;-79
2023/02/15 11:09:49;;;;;;;18.90;14.40;;;;;;;8.66;62.81;97934.30;110790;1271;22339;-80
2023/02/15 11:12:23;;;;;;;18.60;13.00;;;;;;;8.42;62.92;97926.05;110721;1265;22251;-80
2023/02/15 11:15:01;;;;;;;16.30;12.10;;;;;;;8.41;63.38;97922.35;110776;1271;22332;-79
2023/02/15 11:17:37;;;;;;;16.40;12.20;;;;;;;8.38;62.94;97920.92;110749;1271;34754;-80
2023/02/15 11:20:20;;;;;;;16.40;12.30;;;;;;;8.50;63.37;97923.13;110756;1264;22130;-79
2023/02/15 11:23:04;;;;;;;17.20;12.40;;;;;;;8.48;62.88;97919.77;109280;1270;23204;-79
2023/02/15 11:25:36;;;;;;;15.40;11.50;;;;;;;8.50;62.82;97917.73;109300;1268;23431;-79
2023/02/15 11:28:18;;;;;;;17.00;11.70;;;;;;;8.42;62.06;97913.17;109283;1271;22602;-79
2023/02/15 11:30:55;;;;;;;13.60;10.30;;;;;;;8.43;62.68;97908.09;109307;1268;22532;-79
2023/02/15 11:33:32;;;;;;;13.40;9.40;;;;;;;8.60;62.55;97905.41;109278;1271;22584;-79
2023/02/15 11:36:08;;;;;;;9.30;6.70;;;;;;;8.80;62.09;97905.29;109303;1271;22530;-79
2023/02/15 11:38:43;;;;;;;10.90;7.00;;;;;;;8.84;61.00;97902.55;109301;1271;22534;-79
2023/02/15 11:41:20;;;;;;;11.40;8.00;;;;;;;8.92;60.89;97900.08;109326;1271;25368;-79
2023/02/15 11:43:57;;;;;;;14.50;8.10;;;;;;;9.06;61.30;97891.57;109266;1271;25415;-78
2023/02/15 11:46:29;;;;;;;10.60;7.40;;;;;;;9.25;60.77;97892.05;109355;1268;22531;-79
2023/02/15 11:49:00;;;;;;;8.70;6.20;;;;;;;9.24;60.10;97886.12;109300;1271;22479;-78
2023/02/15 11:51:31;;;;;;;8.60;5.80;;;;;;;9.16;58.75;97889.36;109326;1271;22551;-79
2023/02/15 11:54:04;;;;;;;10.60;6.70;;;;;;;9.03;58.25;97888.00;109285;1271;24265;-78
2023/02/15 11:56:35;;;;;;;8.70;5.70;;;;;;;9.06;58.98;97886.44;109347;1262;22551;-79
2023/02/15 11:59:12;;;;;;;11.20;6.00;;;;;;;9.13;58.82;97884.05;109341;1271;22530;-78
2023/02/15 12:01:45;;;;;;;8.90;6.10;;;;;;;9.16;58.78;97881.54;109344;1268;22585;-79
2023/02/15 12:04:25;;;;;;;8.50;6.70;;;;;;;9.32;59.75;97877.99;109371;1271;22534;-79
2023/02/15 12:07:01;;;;;;;8.40;5.90;;;;;;;9.55;59.78;97872.09;109253;1271;83490;-79
2023/02/15 12:09:37;;;;;;;9.70;6.40;;;;;;;9.70;59.37;97868.92;109333;1271;22569;-79
2023/02/15 12:12:28;;;;;;;9.00;6.00;;;;;;;9.80;59.59;97868.34;109319;1271;22552;-79
2023/02/15 12:15:01;;;;;;;10.80;6.90;;;;;;;9.74;58.02;97867.84;109324;1271;22537;-79
2023/02/15 12:17:39;;;;;;;10.40;6.60;;;;;;;9.75;58.73;97862.56;109302;1271;22534;-79